sensor_id;sensor_type;location;lat;lon;timestamp;P1;durP1;ratioP1;P2;durP2;ratioP2
76612;SDS011;65507;48.454;-2.058;2022-12-16T00:01:50;12.30;;;5.03;;
76612;SDS011;65507;48.454;-2.058;2022-12-16T00:04:15;13.70;;;4.97;;
76612;SDS011;65507;48.454;-2.058;2022-12-16T00:06:41;8.32;;;3.85;;
76612;SDS011;65507;48.454;-2.058;2022-12-16T00:09:07;8.70;;;4.07;;
76612;SDS011;65507;48.454;-2.058;2022-12-16T00:11:33;11.02;;;4.10;;
76612;SDS011;65507;48.454;-2.058;2022-12-16T00:13:59;13.38;;;4.88;;
76612;SDS011;65507;48.454;-2.058;2022-12-16T00:16:25;9.73;;;3.53;;
76612;SDS011;65507;48.454;-2.058;2022-12-16T00:18:51;11.85;;;4.15;;
76612;SDS011;65507;48.454;-2.058;2022-12-16T00:21:16;7.38;;;3.97;;
76612;SDS011;65507;48.454;-2.058;2022-12-16T00:23:45;9.05;;;3.95;;
76612;SDS011;65507;48.454;-2.058;2022-12-16T00:26:12;14.98;;;3.80;;
76612;SDS011;65507;48.454;-2.058;2022-12-16T00:28:38;9.77;;;4.07;;
76612;SDS011;65507;48.454;-2.058;2022-12-16T00:31:04;6.40;;;3.53;;
76612;SDS011;65507;48.454;-2.058;2022-12-16T00:33:31;9.75;;;3.83;;
76612;SDS011;65507;48.454;-2.058;2022-12-16T00:35:57;9.80;;;3.58;;
76612;SDS011;65507;48.454;-2.058;2022-12-16T00:38:24;8.93;;;4.05;;
76612;SDS011;65507;48.454;-2.058;2022-12-16T00:40:50;9.23;;;3.85;;
76612;SDS011;65507;48.454;-2.058;2022-12-16T00:43:16;7.63;;;3.90;;
76612;SDS011;65507;48.454;-2.058;2022-12-16T00:45:42;9.55;;;3.92;;
76612;SDS011;65507;48.454;-2.058;2022-12-16T00:48:09;8.15;;;3.67;;
76612;SDS011;65507;48.454;-2.058;2022-12-16T00:50:35;11.27;;;4.82;;
76612;SDS011;65507;48.454;-2.058;2022-12-16T00:53:01;16.30;;;4.25;;
76612;SDS011;65507;48.454;-2.058;2022-12-16T00:55:27;7.90;;;4.35;;
76612;SDS011;65507;48.454;-2.058;2022-12-16T00:57:53;8.30;;;4.43;;
76612;SDS011;65507;48.454;-2.058;2022-12-16T01:00:19;6.95;;;4.00;;
76612;SDS011;65507;48.454;-2.058;2022-12-16T01:02:47;8.40;;;4.13;;
76612;SDS011;65507;48.454;-2.058;2022-12-16T01:05:14;10.90;;;4.25;;
76612;SDS011;65507;48.454;-2.058;2022-12-16T01:07:42;12.20;;;4.82;;
76612;SDS011;65507;48.454;-2.058;2022-12-16T01:10:08;7.45;;;4.30;;
76612;SDS011;65507;48.454;-2.058;2022-12-16T01:12:35;11.85;;;4.88;;
76612;SDS011;65507;48.454;-2.058;2022-12-16T01:15:03;11.45;;;4.40;;
76612;SDS011;65507;48.454;-2.058;2022-12-16T01:17:30;8.02;;;4.10;;
76612;SDS011;65507;48.454;-2.058;2022-12-16T01:19:56;8.10;;;4.15;;
76612;SDS011;65507;48.454;-2.058;2022-12-16T01:22:22;5.97;;;4.22;;
76612;SDS011;65507;48.454;-2.058;2022-12-16T01:24:47;7.18;;;4.38;;
76612;SDS011;65507;48.454;-2.058;2022-12-16T01:27:13;13.30;;;4.32;;
76612;SDS011;65507;48.454;-2.058;2022-12-16T01:29:40;10.87;;;4.30;;
76612;SDS011;65507;48.454;-2.058;2022-12-16T01:32:08;7.50;;;4.00;;
76612;SDS011;65507;48.454;-2.058;2022-12-16T01:34:37;8.27;;;4.07;;
76612;SDS011;65507;48.454;-2.058;2022-12-16T01:37:03;10.25;;;4.50;;
76612;SDS011;65507;48.454;-2.058;2022-12-16T01:39:29;9.07;;;4.38;;
76612;SDS011;65507;48.454;-2.058;2022-12-16T01:41:55;13.27;;;4.65;;
76612;SDS011;65507;48.454;-2.058;2022-12-16T01:44:22;8.82;;;4.53;;
76612;SDS011;65507;48.454;-2.058;2022-12-16T01:46:50;8.30;;;3.97;;
76612;SDS011;65507;48.454;-2.058;2022-12-16T01:51:59;8.75;;;4.43;;
76612;SDS011;65507;48.454;-2.058;2022-12-16T01:54:29;8.90;;;4.35;;
76612;SDS011;65507;48.454;-2.058;2022-12-16T01:57:01;9.65;;;5.15;;
76612;SDS011;65507;48.454;-2.058;2022-12-16T01:59:30;10.35;;;4.82;;
76612;SDS011;65507;48.454;-2.058;2022-12-16T02:01:59;12.80;;;4.57;;
76612;SDS011;65507;48.454;-2.058;2022-12-16T02:04:26;15.07;;;5.13;;
76612;SDS011;65507;48.454;-2.058;2022-12-16T02:06:52;11.73;;;5.25;;
76612;SDS011;65507;48.454;-2.058;2022-12-16T02:09:19;11.63;;;5.20;;
76612;SDS011;65507;48.454;-2.058;2022-12-16T02:17:06;17.30;;;5.10;;
76612;SDS011;65507;48.454;-2.058;2022-12-16T02:31:53;8.02;;;4.95;;
76612;SDS011;65507;48.454;-2.058;2022-12-16T02:37:18;7.10;;;4.35;;
76612;SDS011;65507;48.454;-2.058;2022-12-16T02:39:58;12.10;;;4.38;;
76612;SDS011;65507;48.454;-2.058;2022-12-16T02:42:44;10.52;;;5.03;;
76612;SDS011;65507;48.454;-2.058;2022-12-16T02:45:15;10.27;;;4.72;;
76612;SDS011;65507;48.454;-2.058;2022-12-16T02:47:47;13.75;;;5.95;;
76612;SDS011;65507;48.454;-2.058;2022-12-16T02:50:35;17.58;;;4.82;;
76612;SDS011;65507;48.454;-2.058;2022-12-16T02:53:06;12.15;;;4.43;;
76612;SDS011;65507;48.454;-2.058;2022-12-16T02:55:54;10.48;;;4.50;;
76612;SDS011;65507;48.454;-2.058;2022-12-16T02:58:43;11.82;;;5.68;;
76612;SDS011;65507;48.454;-2.058;2022-12-16T03:01:36;9.20;;;4.63;;
76612;SDS011;65507;48.454;-2.058;2022-12-16T03:04:14;9.45;;;5.38;;
76612;SDS011;65507;48.454;-2.058;2022-12-16T03:06:46;11.43;;;4.40;;
76612;SDS011;65507;48.454;-2.058;2022-12-16T03:09:14;11.95;;;4.57;;
76612;SDS011;65507;48.454;-2.058;2022-12-16T03:11:45;16.02;;;4.30;;
76612;SDS011;65507;48.454;-2.058;2022-12-16T03:14:14;10.10;;;5.10;;
76612;SDS011;65507;48.454;-2.058;2022-12-16T03:16:42;9.55;;;4.88;;
76612;SDS011;65507;48.454;-2.058;2022-12-16T03:19:10;9.95;;;4.43;;
76612;SDS011;65507;48.454;-2.058;2022-12-16T03:21:38;12.77;;;4.60;;
76612;SDS011;65507;48.454;-2.058;2022-12-16T03:24:14;6.10;;;3.95;;
76612;SDS011;65507;48.454;-2.058;2022-12-16T03:26:57;8.50;;;4.65;;
76612;SDS011;65507;48.454;-2.058;2022-12-16T03:29:52;11.15;;;5.07;;
76612;SDS011;65507;48.454;-2.058;2022-12-16T03:35:36;11.45;;;5.43;;
76612;SDS011;65507;48.454;-2.058;2022-12-16T03:38:03;9.18;;;4.55;;
76612;SDS011;65507;48.454;-2.058;2022-12-16T03:40:31;10.70;;;5.75;;
76612;SDS011;65507;48.454;-2.058;2022-12-16T03:42:59;13.80;;;4.67;;
76612;SDS011;65507;48.454;-2.058;2022-12-16T03:48:02;7.88;;;4.93;;
76612;SDS011;65507;48.454;-2.058;2022-12-16T03:50:31;9.77;;;4.28;;
76612;SDS011;65507;48.454;-2.058;2022-12-16T03:52:57;10.10;;;4.55;;
76612;SDS011;65507;48.454;-2.058;2022-12-16T03:55:23;10.00;;;4.85;;
76612;SDS011;65507;48.454;-2.058;2022-12-16T03:57:50;8.50;;;4.70;;
76612;SDS011;65507;48.454;-2.058;2022-12-16T04:00:16;10.35;;;5.45;;
76612;SDS011;65507;48.454;-2.058;2022-12-16T04:02:42;12.32;;;5.35;;
76612;SDS011;65507;48.454;-2.058;2022-12-16T04:05:08;11.88;;;5.30;;
76612;SDS011;65507;48.454;-2.058;2022-12-16T04:07:34;9.40;;;4.97;;
76612;SDS011;65507;48.454;-2.058;2022-12-16T04:10:00;10.77;;;5.22;;
76612;SDS011;65507;48.454;-2.058;2022-12-16T04:12:26;10.70;;;5.65;;
76612;SDS011;65507;48.454;-2.058;2022-12-16T04:15:10;10.77;;;5.13;;
76612;SDS011;65507;48.454;-2.058;2022-12-16T04:17:54;8.32;;;5.03;;
76612;SDS011;65507;48.454;-2.058;2022-12-16T04:20:41;12.52;;;5.43;;
76612;SDS011;65507;48.454;-2.058;2022-12-16T04:23:28;11.18;;;5.95;;
76612;SDS011;65507;48.454;-2.058;2022-12-16T04:26:14;12.88;;;5.07;;
76612;SDS011;65507;48.454;-2.058;2022-12-16T04:28:40;9.60;;;5.47;;
76612;SDS011;65507;48.454;-2.058;2022-12-16T04:31:06;11.27;;;5.15;;
76612;SDS011;65507;48.454;-2.058;2022-12-16T04:33:32;11.90;;;4.72;;
76612;SDS011;65507;48.454;-2.058;2022-12-16T04:36:17;13.93;;;5.20;;
76612;SDS011;65507;48.454;-2.058;2022-12-16T04:39:01;14.15;;;5.03;;
76612;SDS011;65507;48.454;-2.058;2022-12-16T04:41:56;14.25;;;5.97;;
76612;SDS011;65507;48.454;-2.058;2022-12-16T04:44:40;11.20;;;4.63;;
76612;SDS011;65507;48.454;-2.058;2022-12-16T04:47:24;12.18;;;5.00;;
76612;SDS011;65507;48.454;-2.058;2022-12-16T04:50:09;12.60;;;5.15;;
76612;SDS011;65507;48.454;-2.058;2022-12-16T04:52:53;15.98;;;5.63;;
76612;SDS011;65507;48.454;-2.058;2022-12-16T04:55:37;10.93;;;4.95;;
76612;SDS011;65507;48.454;-2.058;2022-12-16T04:58:22;13.45;;;5.35;;
76612;SDS011;65507;48.454;-2.058;2022-12-16T05:01:06;10.13;;;5.63;;
76612;SDS011;65507;48.454;-2.058;2022-12-16T05:03:50;12.05;;;5.20;;
76612;SDS011;65507;48.454;-2.058;2022-12-16T05:06:34;11.05;;;4.93;;
76612;SDS011;65507;48.454;-2.058;2022-12-16T05:09:18;12.30;;;5.38;;
76612;SDS011;65507;48.454;-2.058;2022-12-16T05:12:02;13.75;;;5.82;;
76612;SDS011;65507;48.454;-2.058;2022-12-16T05:14:47;14.57;;;5.38;;
76612;SDS011;65507;48.454;-2.058;2022-12-16T05:17:31;8.65;;;4.32;;
76612;SDS011;65507;48.454;-2.058;2022-12-16T05:20:15;8.32;;;4.63;;
76612;SDS011;65507;48.454;-2.058;2022-12-16T05:22:59;10.43;;;4.18;;
76612;SDS011;65507;48.454;-2.058;2022-12-16T05:25:43;9.95;;;4.55;;
76612;SDS011;65507;48.454;-2.058;2022-12-16T05:28:27;27.05;;;5.05;;
76612;SDS011;65507;48.454;-2.058;2022-12-16T05:31:12;7.20;;;4.47;;
76612;SDS011;65507;48.454;-2.058;2022-12-16T05:33:56;9.65;;;4.82;;
76612;SDS011;65507;48.454;-2.058;2022-12-16T05:36:40;8.75;;;4.75;;
76612;SDS011;65507;48.454;-2.058;2022-12-16T05:39:24;11.63;;;5.18;;
76612;SDS011;65507;48.454;-2.058;2022-12-16T05:42:08;10.27;;;4.63;;
76612;SDS011;65507;48.454;-2.058;2022-12-16T05:44:52;8.90;;;4.78;;
76612;SDS011;65507;48.454;-2.058;2022-12-16T05:47:37;6.82;;;4.32;;
76612;SDS011;65507;48.454;-2.058;2022-12-16T05:50:22;15.98;;;4.32;;
76612;SDS011;65507;48.454;-2.058;2022-12-16T05:53:06;10.18;;;4.80;;
76612;SDS011;65507;48.454;-2.058;2022-12-16T05:58:37;9.80;;;4.00;;
76612;SDS011;65507;48.454;-2.058;2022-12-16T06:01:21;9.32;;;4.15;;
76612;SDS011;65507;48.454;-2.058;2022-12-16T06:04:05;12.27;;;5.22;;
76612;SDS011;65507;48.454;-2.058;2022-12-16T06:06:49;11.57;;;3.90;;
76612;SDS011;65507;48.454;-2.058;2022-12-16T06:09:33;9.13;;;4.65;;
76612;SDS011;65507;48.454;-2.058;2022-12-16T06:12:18;9.68;;;4.72;;
76612;SDS011;65507;48.454;-2.058;2022-12-16T06:15:05;10.07;;;4.50;;
76612;SDS011;65507;48.454;-2.058;2022-12-16T06:20:33;13.45;;;4.72;;
76612;SDS011;65507;48.454;-2.058;2022-12-16T06:23:18;9.00;;;4.78;;
76612;SDS011;65507;48.454;-2.058;2022-12-16T06:26:04;9.85;;;4.88;;
76612;SDS011;65507;48.454;-2.058;2022-12-16T06:28:48;15.77;;;5.03;;
76612;SDS011;65507;48.454;-2.058;2022-12-16T06:31:33;8.95;;;4.93;;
76612;SDS011;65507;48.454;-2.058;2022-12-16T06:34:17;11.13;;;4.63;;
76612;SDS011;65507;48.454;-2.058;2022-12-16T06:37:01;18.13;;;5.70;;
76612;SDS011;65507;48.454;-2.058;2022-12-16T06:39:45;13.10;;;5.63;;
76612;SDS011;65507;48.454;-2.058;2022-12-16T06:42:29;13.30;;;5.25;;
76612;SDS011;65507;48.454;-2.058;2022-12-16T06:45:13;12.52;;;5.07;;
76612;SDS011;65507;48.454;-2.058;2022-12-16T06:47:58;12.90;;;5.47;;
76612;SDS011;65507;48.454;-2.058;2022-12-16T06:50:42;14.43;;;5.95;;
76612;SDS011;65507;48.454;-2.058;2022-12-16T06:53:26;11.20;;;5.53;;
76612;SDS011;65507;48.454;-2.058;2022-12-16T06:56:10;14.00;;;5.88;;
76612;SDS011;65507;48.454;-2.058;2022-12-16T06:58:54;14.80;;;5.65;;
76612;SDS011;65507;48.454;-2.058;2022-12-16T07:01:38;13.95;;;6.30;;
76612;SDS011;65507;48.454;-2.058;2022-12-16T07:04:22;11.18;;;5.22;;
76612;SDS011;65507;48.454;-2.058;2022-12-16T07:07:07;11.50;;;5.20;;
76612;SDS011;65507;48.454;-2.058;2022-12-16T07:09:51;13.25;;;5.60;;
76612;SDS011;65507;48.454;-2.058;2022-12-16T07:12:35;18.80;;;6.97;;
76612;SDS011;65507;48.454;-2.058;2022-12-16T07:15:19;15.48;;;6.90;;
76612;SDS011;65507;48.454;-2.058;2022-12-16T07:18:03;13.23;;;7.43;;
76612;SDS011;65507;48.454;-2.058;2022-12-16T07:20:47;18.48;;;7.90;;
76612;SDS011;65507;48.454;-2.058;2022-12-16T07:23:31;9.85;;;6.72;;
76612;SDS011;65507;48.454;-2.058;2022-12-16T07:26:15;14.82;;;6.53;;
76612;SDS011;65507;48.454;-2.058;2022-12-16T07:28:59;10.60;;;6.57;;
76612;SDS011;65507;48.454;-2.058;2022-12-16T07:31:44;12.10;;;6.28;;
76612;SDS011;65507;48.454;-2.058;2022-12-16T07:34:28;9.65;;;5.22;;
76612;SDS011;65507;48.454;-2.058;2022-12-16T07:37:12;10.00;;;4.90;;
76612;SDS011;65507;48.454;-2.058;2022-12-16T07:39:56;11.18;;;5.57;;
76612;SDS011;65507;48.454;-2.058;2022-12-16T07:42:40;17.25;;;5.25;;
76612;SDS011;65507;48.454;-2.058;2022-12-16T07:45:25;11.40;;;6.00;;
76612;SDS011;65507;48.454;-2.058;2022-12-16T07:48:09;11.93;;;5.70;;
76612;SDS011;65507;48.454;-2.058;2022-12-16T07:50:55;12.43;;;5.00;;
76612;SDS011;65507;48.454;-2.058;2022-12-16T07:53:39;9.18;;;4.95;;
76612;SDS011;65507;48.454;-2.058;2022-12-16T07:56:23;13.88;;;5.10;;
76612;SDS011;65507;48.454;-2.058;2022-12-16T07:59:07;9.15;;;5.22;;
76612;SDS011;65507;48.454;-2.058;2022-12-16T08:01:52;14.30;;;5.45;;
76612;SDS011;65507;48.454;-2.058;2022-12-16T08:04:36;11.18;;;5.05;;
76612;SDS011;65507;48.454;-2.058;2022-12-16T08:07:20;9.65;;;4.85;;
76612;SDS011;65507;48.454;-2.058;2022-12-16T08:10:04;10.60;;;5.55;;
76612;SDS011;65507;48.454;-2.058;2022-12-16T08:12:49;14.63;;;6.45;;
76612;SDS011;65507;48.454;-2.058;2022-12-16T08:15:33;17.92;;;7.13;;
76612;SDS011;65507;48.454;-2.058;2022-12-16T08:18:17;12.13;;;6.22;;
76612;SDS011;65507;48.454;-2.058;2022-12-16T08:21:01;10.25;;;5.47;;
76612;SDS011;65507;48.454;-2.058;2022-12-16T08:23:46;13.57;;;6.47;;
76612;SDS011;65507;48.454;-2.058;2022-12-16T08:26:30;12.75;;;6.40;;
76612;SDS011;65507;48.454;-2.058;2022-12-16T08:29:14;13.02;;;5.50;;
76612;SDS011;65507;48.454;-2.058;2022-12-16T08:31:58;16.23;;;6.28;;
76612;SDS011;65507;48.454;-2.058;2022-12-16T08:34:42;13.57;;;5.97;;
76612;SDS011;65507;48.454;-2.058;2022-12-16T08:37:27;13.55;;;5.53;;
76612;SDS011;65507;48.454;-2.058;2022-12-16T08:40:12;11.25;;;5.60;;
76612;SDS011;65507;48.454;-2.058;2022-12-16T08:42:56;11.77;;;5.88;;
76612;SDS011;65507;48.454;-2.058;2022-12-16T08:45:40;10.02;;;5.00;;
76612;SDS011;65507;48.454;-2.058;2022-12-16T08:48:25;7.20;;;4.88;;
76612;SDS011;65507;48.454;-2.058;2022-12-16T08:51:10;12.52;;;5.15;;
76612;SDS011;65507;48.454;-2.058;2022-12-16T08:53:55;11.30;;;5.38;;
76612;SDS011;65507;48.454;-2.058;2022-12-16T08:56:39;10.13;;;5.38;;
76612;SDS011;65507;48.454;-2.058;2022-12-16T08:59:23;11.00;;;5.35;;
76612;SDS011;65507;48.454;-2.058;2022-12-16T09:02:08;11.70;;;6.60;;
76612;SDS011;65507;48.454;-2.058;2022-12-16T09:04:56;11.82;;;6.50;;
76612;SDS011;65507;48.454;-2.058;2022-12-16T09:07:40;9.60;;;6.32;;
76612;SDS011;65507;48.454;-2.058;2022-12-16T09:10:41;11.30;;;5.43;;
76612;SDS011;65507;48.454;-2.058;2022-12-16T09:13:25;12.93;;;6.25;;
76612;SDS011;65507;48.454;-2.058;2022-12-16T09:16:09;8.35;;;5.03;;
76612;SDS011;65507;48.454;-2.058;2022-12-16T09:18:53;7.80;;;4.40;;
76612;SDS011;65507;48.454;-2.058;2022-12-16T09:21:37;10.20;;;4.90;;
76612;SDS011;65507;48.454;-2.058;2022-12-16T09:24:21;13.18;;;5.07;;
76612;SDS011;65507;48.454;-2.058;2022-12-16T09:27:05;12.07;;;6.18;;
76612;SDS011;65507;48.454;-2.058;2022-12-16T09:29:49;11.77;;;5.38;;
76612;SDS011;65507;48.454;-2.058;2022-12-16T09:32:33;7.53;;;4.63;;
76612;SDS011;65507;48.454;-2.058;2022-12-16T09:35:17;14.70;;;5.38;;
76612;SDS011;65507;48.454;-2.058;2022-12-16T09:38:02;11.90;;;4.47;;
76612;SDS011;65507;48.454;-2.058;2022-12-16T09:40:45;11.23;;;4.85;;
76612;SDS011;65507;48.454;-2.058;2022-12-16T09:43:54;9.80;;;5.10;;
76612;SDS011;65507;48.454;-2.058;2022-12-16T09:49:40;10.57;;;6.03;;
76612;SDS011;65507;48.454;-2.058;2022-12-16T09:52:50;13.25;;;4.78;;
76612;SDS011;65507;48.454;-2.058;2022-12-16T09:55:40;9.90;;;5.10;;
76612;SDS011;65507;48.454;-2.058;2022-12-16T09:58:27;11.32;;;5.18;;
76612;SDS011;65507;48.454;-2.058;2022-12-16T10:01:19;11.23;;;5.38;;
76612;SDS011;65507;48.454;-2.058;2022-12-16T10:04:05;7.95;;;4.97;;
76612;SDS011;65507;48.454;-2.058;2022-12-16T10:06:54;13.93;;;4.95;;
76612;SDS011;65507;48.454;-2.058;2022-12-16T10:09:48;13.85;;;5.15;;
76612;SDS011;65507;48.454;-2.058;2022-12-16T10:12:57;19.48;;;11.60;;
76612;SDS011;65507;48.454;-2.058;2022-12-16T10:15:51;12.18;;;4.95;;
76612;SDS011;65507;48.454;-2.058;2022-12-16T10:24:55;10.60;;;4.32;;
76612;SDS011;65507;48.454;-2.058;2022-12-16T10:27:46;13.32;;;4.97;;
76612;SDS011;65507;48.454;-2.058;2022-12-16T10:30:32;21.48;;;8.05;;
76612;SDS011;65507;48.454;-2.058;2022-12-16T10:33:23;15.55;;;7.15;;
76612;SDS011;65507;48.454;-2.058;2022-12-16T10:36:20;31.25;;;12.05;;
76612;SDS011;65507;48.454;-2.058;2022-12-16T10:39:15;25.65;;;10.25;;
76612;SDS011;65507;48.454;-2.058;2022-12-16T10:42:20;16.52;;;6.80;;
76612;SDS011;65507;48.454;-2.058;2022-12-16T10:45:07;9.82;;;5.15;;
76612;SDS011;65507;48.454;-2.058;2022-12-16T10:48:11;12.20;;;5.65;;
76612;SDS011;65507;48.454;-2.058;2022-12-16T10:50:57;12.43;;;5.47;;
76612;SDS011;65507;48.454;-2.058;2022-12-16T10:53:43;11.75;;;5.82;;
76612;SDS011;65507;48.454;-2.058;2022-12-16T10:59:43;16.92;;;5.45;;
76612;SDS011;65507;48.454;-2.058;2022-12-16T11:02:27;14.45;;;4.32;;
76612;SDS011;65507;48.454;-2.058;2022-12-16T11:08:25;10.00;;;5.10;;
76612;SDS011;65507;48.454;-2.058;2022-12-16T11:11:17;13.52;;;5.25;;
76612;SDS011;65507;48.454;-2.058;2022-12-16T11:17:16;8.68;;;4.80;;
76612;SDS011;65507;48.454;-2.058;2022-12-16T11:20:12;17.77;;;5.60;;
76612;SDS011;65507;48.454;-2.058;2022-12-16T11:23:15;13.98;;;5.68;;
76612;SDS011;65507;48.454;-2.058;2022-12-16T11:26:16;8.93;;;4.47;;
76612;SDS011;65507;48.454;-2.058;2022-12-16T11:29:15;11.50;;;4.90;;
76612;SDS011;65507;48.454;-2.058;2022-12-16T11:35:04;8.98;;;3.88;;
76612;SDS011;65507;48.454;-2.058;2022-12-16T11:37:52;10.23;;;4.45;;
76612;SDS011;65507;48.454;-2.058;2022-12-16T11:40:38;10.13;;;4.10;;
76612;SDS011;65507;48.454;-2.058;2022-12-16T11:43:24;7.15;;;3.30;;
76612;SDS011;65507;48.454;-2.058;2022-12-16T11:46:20;8.65;;;3.20;;
76612;SDS011;65507;48.454;-2.058;2022-12-16T11:49:43;7.68;;;2.88;;
76612;SDS011;65507;48.454;-2.058;2022-12-16T11:52:20;10.05;;;3.47;;
76612;SDS011;65507;48.454;-2.058;2022-12-16T11:55:16;7.88;;;3.53;;
76612;SDS011;65507;48.454;-2.058;2022-12-16T12:04:47;14.05;;;3.50;;
76612;SDS011;65507;48.454;-2.058;2022-12-16T12:08:08;9.18;;;2.85;;
76612;SDS011;65507;48.454;-2.058;2022-12-16T12:14:02;7.50;;;2.63;;
76612;SDS011;65507;48.454;-2.058;2022-12-16T12:23:06;5.85;;;2.65;;
76612;SDS011;65507;48.454;-2.058;2022-12-16T12:29:10;4.05;;;2.15;;
76612;SDS011;65507;48.454;-2.058;2022-12-16T12:35:11;7.55;;;2.65;;
76612;SDS011;65507;48.454;-2.058;2022-12-16T12:38:19;10.13;;;2.97;;
76612;SDS011;65507;48.454;-2.058;2022-12-16T12:46:58;5.65;;;2.13;;
76612;SDS011;65507;48.454;-2.058;2022-12-16T12:50:01;6.38;;;1.95;;
76612;SDS011;65507;48.454;-2.058;2022-12-16T12:56:20;7.93;;;2.75;;
76612;SDS011;65507;48.454;-2.058;2022-12-16T12:59:36;6.60;;;3.00;;
76612;SDS011;65507;48.454;-2.058;2022-12-16T13:02:38;5.57;;;3.08;;
76612;SDS011;65507;48.454;-2.058;2022-12-16T13:05:28;5.97;;;3.03;;
76612;SDS011;65507;48.454;-2.058;2022-12-16T13:11:14;9.95;;;3.00;;
76612;SDS011;65507;48.454;-2.058;2022-12-16T13:13:58;9.82;;;3.20;;
76612;SDS011;65507;48.454;-2.058;2022-12-16T13:22:34;6.53;;;3.38;;
76612;SDS011;65507;48.454;-2.058;2022-12-16T13:25:33;6.57;;;3.00;;
76612;SDS011;65507;48.454;-2.058;2022-12-16T13:28:32;6.80;;;3.05;;
76612;SDS011;65507;48.454;-2.058;2022-12-16T13:31:36;13.45;;;2.92;;
76612;SDS011;65507;48.454;-2.058;2022-12-16T13:35:03;6.32;;;2.85;;
76612;SDS011;65507;48.454;-2.058;2022-12-16T13:37:58;5.88;;;3.20;;
76612;SDS011;65507;48.454;-2.058;2022-12-16T13:41:01;13.45;;;3.67;;
76612;SDS011;65507;48.454;-2.058;2022-12-16T13:43:48;7.45;;;2.83;;
76612;SDS011;65507;48.454;-2.058;2022-12-16T13:53:06;5.45;;;3.42;;
76612;SDS011;65507;48.454;-2.058;2022-12-16T14:01:40;4.47;;;2.45;;
76612;SDS011;65507;48.454;-2.058;2022-12-16T14:04:43;6.93;;;2.30;;
76612;SDS011;65507;48.454;-2.058;2022-12-16T14:07:30;6.40;;;2.88;;
76612;SDS011;65507;48.454;-2.058;2022-12-16T14:16:44;6.20;;;2.10;;
76612;SDS011;65507;48.454;-2.058;2022-12-16T14:25:45;7.85;;;2.42;;
76612;SDS011;65507;48.454;-2.058;2022-12-16T14:28:32;8.85;;;3.20;;
76612;SDS011;65507;48.454;-2.058;2022-12-16T14:31:29;7.05;;;2.13;;
76612;SDS011;65507;48.454;-2.058;2022-12-16T14:34:24;9.43;;;2.92;;
76612;SDS011;65507;48.454;-2.058;2022-12-16T14:37:21;9.75;;;2.38;;
76612;SDS011;65507;48.454;-2.058;2022-12-16T14:40:22;4.93;;;2.35;;
76612;SDS011;65507;48.454;-2.058;2022-12-16T14:43:14;3.72;;;2.30;;
76612;SDS011;65507;48.454;-2.058;2022-12-16T14:46:01;7.20;;;2.40;;
76612;SDS011;65507;48.454;-2.058;2022-12-16T14:48:46;6.50;;;1.92;;
76612;SDS011;65507;48.454;-2.058;2022-12-16T14:57:16;9.15;;;2.10;;
76612;SDS011;65507;48.454;-2.058;2022-12-16T15:02:53;5.65;;;2.05;;
76612;SDS011;65507;48.454;-2.058;2022-12-16T15:05:41;3.97;;;1.88;;
76612;SDS011;65507;48.454;-2.058;2022-12-16T15:08:27;10.05;;;3.03;;
76612;SDS011;65507;48.454;-2.058;2022-12-16T15:11:16;8.13;;;2.42;;
76612;SDS011;65507;48.454;-2.058;2022-12-16T15:14:03;8.52;;;2.65;;
76612;SDS011;65507;48.454;-2.058;2022-12-16T15:16:49;8.40;;;2.22;;
76612;SDS011;65507;48.454;-2.058;2022-12-16T15:19:42;6.20;;;2.88;;
76612;SDS011;65507;48.454;-2.058;2022-12-16T15:22:29;6.18;;;2.50;;
76612;SDS011;65507;48.454;-2.058;2022-12-16T15:25:18;11.07;;;3.00;;
76612;SDS011;65507;48.454;-2.058;2022-12-16T15:28:04;5.18;;;2.83;;
76612;SDS011;65507;48.454;-2.058;2022-12-16T15:31:11;10.55;;;3.65;;
76612;SDS011;65507;48.454;-2.058;2022-12-16T15:34:16;7.10;;;3.28;;
76612;SDS011;65507;48.454;-2.058;2022-12-16T15:37:15;10.18;;;3.35;;
76612;SDS011;65507;48.454;-2.058;2022-12-16T15:40:20;7.35;;;3.28;;
76612;SDS011;65507;48.454;-2.058;2022-12-16T15:46:17;11.73;;;3.10;;
76612;SDS011;65507;48.454;-2.058;2022-12-16T15:49:03;8.38;;;3.03;;
76612;SDS011;65507;48.454;-2.058;2022-12-16T15:51:48;7.82;;;3.15;;
76612;SDS011;65507;48.454;-2.058;2022-12-16T15:54:47;11.73;;;3.88;;
76612;SDS011;65507;48.454;-2.058;2022-12-16T15:57:35;8.18;;;4.03;;
76612;SDS011;65507;48.454;-2.058;2022-12-16T16:00:25;12.15;;;3.92;;
76612;SDS011;65507;48.454;-2.058;2022-12-16T16:09:09;8.63;;;3.65;;
76612;SDS011;65507;48.454;-2.058;2022-12-16T16:12:04;10.25;;;3.47;;
76612;SDS011;65507;48.454;-2.058;2022-12-16T16:14:51;7.80;;;3.10;;
76612;SDS011;65507;48.454;-2.058;2022-12-16T16:17:35;10.38;;;3.70;;
76612;SDS011;65507;48.454;-2.058;2022-12-16T16:20:19;5.75;;;3.42;;
76612;SDS011;65507;48.454;-2.058;2022-12-16T16:23:03;12.98;;;4.03;;
76612;SDS011;65507;48.454;-2.058;2022-12-16T16:25:49;12.50;;;4.20;;
76612;SDS011;65507;48.454;-2.058;2022-12-16T16:28:34;12.40;;;4.00;;
76612;SDS011;65507;48.454;-2.058;2022-12-16T16:31:18;12.27;;;5.22;;
76612;SDS011;65507;48.454;-2.058;2022-12-16T16:34:02;14.20;;;5.22;;
76612;SDS011;65507;48.454;-2.058;2022-12-16T16:36:51;18.70;;;7.65;;
76612;SDS011;65507;48.454;-2.058;2022-12-16T16:39:37;15.27;;;6.82;;
76612;SDS011;65507;48.454;-2.058;2022-12-16T16:42:22;14.60;;;7.05;;
76612;SDS011;65507;48.454;-2.058;2022-12-16T16:45:06;21.48;;;8.20;;
76612;SDS011;65507;48.454;-2.058;2022-12-16T16:47:53;17.73;;;8.25;;
76612;SDS011;65507;48.454;-2.058;2022-12-16T16:50:56;16.90;;;7.82;;
76612;SDS011;65507;48.454;-2.058;2022-12-16T16:53:41;14.38;;;7.70;;
76612;SDS011;65507;48.454;-2.058;2022-12-16T16:56:26;19.73;;;7.47;;
76612;SDS011;65507;48.454;-2.058;2022-12-16T16:59:13;14.60;;;7.05;;
76612;SDS011;65507;48.454;-2.058;2022-12-16T17:01:58;21.63;;;8.18;;
76612;SDS011;65507;48.454;-2.058;2022-12-16T17:04:42;22.27;;;8.68;;
76612;SDS011;65507;48.454;-2.058;2022-12-16T17:07:26;19.95;;;11.02;;
76612;SDS011;65507;48.454;-2.058;2022-12-16T17:10:10;27.80;;;14.23;;
76612;SDS011;65507;48.454;-2.058;2022-12-16T17:12:54;28.58;;;15.27;;
76612;SDS011;65507;48.454;-2.058;2022-12-16T17:15:39;21.42;;;11.43;;
76612;SDS011;65507;48.454;-2.058;2022-12-16T17:18:23;21.83;;;11.65;;
76612;SDS011;65507;48.454;-2.058;2022-12-16T17:21:08;26.52;;;13.90;;
76612;SDS011;65507;48.454;-2.058;2022-12-16T17:23:52;21.20;;;12.32;;
76612;SDS011;65507;48.454;-2.058;2022-12-16T17:26:40;25.90;;;12.00;;
76612;SDS011;65507;48.454;-2.058;2022-12-16T17:29:25;28.17;;;14.20;;
76612;SDS011;65507;48.454;-2.058;2022-12-16T17:32:10;23.63;;;13.68;;
76612;SDS011;65507;48.454;-2.058;2022-12-16T17:34:54;27.00;;;12.70;;
76612;SDS011;65507;48.454;-2.058;2022-12-16T17:37:39;23.25;;;13.07;;
76612;SDS011;65507;48.454;-2.058;2022-12-16T17:40:23;26.70;;;13.35;;
76612;SDS011;65507;48.454;-2.058;2022-12-16T17:43:08;24.90;;;12.82;;
76612;SDS011;65507;48.454;-2.058;2022-12-16T17:46:03;26.83;;;13.50;;
76612;SDS011;65507;48.454;-2.058;2022-12-16T17:48:56;21.85;;;12.10;;
76612;SDS011;65507;48.454;-2.058;2022-12-16T17:51:41;22.40;;;12.00;;
76612;SDS011;65507;48.454;-2.058;2022-12-16T17:54:29;24.15;;;11.55;;
76612;SDS011;65507;48.454;-2.058;2022-12-16T17:59:57;23.42;;;11.00;;
76612;SDS011;65507;48.454;-2.058;2022-12-16T18:02:42;18.85;;;9.68;;
76612;SDS011;65507;48.454;-2.058;2022-12-16T18:05:26;19.85;;;10.05;;
76612;SDS011;65507;48.454;-2.058;2022-12-16T18:08:10;25.05;;;9.57;;
76612;SDS011;65507;48.454;-2.058;2022-12-16T18:10:55;15.77;;;8.77;;
76612;SDS011;65507;48.454;-2.058;2022-12-16T18:13:40;17.25;;;7.90;;
76612;SDS011;65507;48.454;-2.058;2022-12-16T18:16:25;14.88;;;7.75;;
76612;SDS011;65507;48.454;-2.058;2022-12-16T18:19:10;12.50;;;7.60;;
76612;SDS011;65507;48.454;-2.058;2022-12-16T18:21:55;15.35;;;7.63;;